createdAt,value
2023-03-30T00:02:55.549Z,8.61
2023-03-30T00:07:54.396Z,8.62
2023-03-30T00:25:44.871Z,8.69
2023-03-30T00:41:49.571Z,8.71
2023-03-30T00:46:46.020Z,8.70
2023-03-30T00:51:42.688Z,8.73
2023-03-30T00:56:39.377Z,8.76
2023-03-30T01:01:42.313Z,8.75
2023-03-30T01:06:40.802Z,8.65
2023-03-30T01:11:37.541Z,8.71
2023-03-30T01:29:10.183Z,8.70
2023-03-30T01:34:38.179Z,8.67
2023-03-30T01:40:03.856Z,8.68
2023-03-30T01:45:25.122Z,8.63
2023-03-30T01:50:28.949Z,8.58
2023-03-30T01:55:31.178Z,8.52
2023-03-30T02:00:29.035Z,8.52
2023-03-30T02:05:27.655Z,8.50
2023-03-30T02:10:29.917Z,8.45
2023-03-30T02:15:33.419Z,8.50
2023-03-30T02:20:30.350Z,8.49
2023-03-30T02:25:29.008Z,8.45
2023-03-30T02:30:26.615Z,8.47
2023-03-30T02:35:56.477Z,8.45
2023-03-30T02:41:18.874Z,8.44
2023-03-30T02:46:33.042Z,8.45
2023-03-30T02:51:38.585Z,8.44
2023-03-30T02:56:47.283Z,8.46
2023-03-30T03:01:51.816Z,8.48
2023-03-30T03:06:52.766Z,8.50
2023-03-30T03:11:49.353Z,8.52
2023-03-30T03:16:45.768Z,8.49
2023-03-30T03:21:42.243Z,8.39
2023-03-30T03:26:38.621Z,8.24
2023-03-30T03:31:35.744Z,8.04
2023-03-30T03:36:32.438Z,7.94
2023-03-30T03:41:28.896Z,7.90
2023-03-30T03:46:25.406Z,7.96
2023-03-30T03:51:21.858Z,8.04
2023-03-30T03:56:18.341Z,8.10
2023-03-30T04:01:15.187Z,8.12
2023-03-30T04:06:11.738Z,8.19
2023-03-30T04:11:11.809Z,8.21
2023-03-30T04:16:08.535Z,8.23
2023-03-30T04:21:07.505Z,8.27
2023-03-30T04:26:05.454Z,8.29
2023-03-30T04:31:04.472Z,8.31
2023-03-30T04:36:01.623Z,8.27
2023-03-30T04:41:00.459Z,8.19
2023-03-30T04:45:57.099Z,8.06
2023-03-30T04:50:54.078Z,8.03
2023-03-30T04:55:51.796Z,8.06
2023-03-30T05:00:48.308Z,8.10
2023-03-30T05:05:44.774Z,8.09
2023-03-30T05:10:41.316Z,8.13
2023-03-30T05:15:37.766Z,8.18
2023-03-30T05:20:34.164Z,8.25
2023-03-30T05:25:31.240Z,8.25
2023-03-30T05:30:27.702Z,8.25
2023-03-30T05:35:24.120Z,8.32
2023-03-30T05:40:20.500Z,8.40
2023-03-30T05:45:17.366Z,8.46
2023-03-30T05:50:14.112Z,8.49
2023-03-30T05:55:11.990Z,8.55
2023-03-30T06:00:10.355Z,8.60
2023-03-30T06:05:08.349Z,8.56
2023-03-30T06:10:06.366Z,8.50
2023-03-30T06:15:03.388Z,8.52
2023-03-30T06:19:59.911Z,8.57
2023-03-30T06:24:56.698Z,8.81
2023-03-30T06:29:53.136Z,8.99
2023-03-30T06:34:49.525Z,8.99
2023-03-30T06:39:46.285Z,9.01
2023-03-30T06:44:42.861Z,9.04
2023-03-30T06:49:39.375Z,8.96
2023-03-30T06:54:35.844Z,8.97
2023-03-30T06:59:34.513Z,9.24
2023-03-30T07:04:34.533Z,9.41
2023-03-30T07:09:31.014Z,9.59
2023-03-30T07:14:27.552Z,9.68
2023-03-30T07:19:23.931Z,9.81
2023-03-30T07:24:20.355Z,9.92
2023-03-30T07:29:16.853Z,9.92
2023-03-30T07:34:13.558Z,9.98
2023-03-30T07:39:11.100Z,10.14
2023-03-30T07:44:07.767Z,10.29
2023-03-30T07:49:04.395Z,10.41
2023-03-30T07:54:01.429Z,10.47
2023-03-30T07:58:59.625Z,10.41
2023-03-30T08:03:58.868Z,10.46
2023-03-30T08:08:56.611Z,10.55
2023-03-30T08:13:53.254Z,10.71
2023-03-30T08:18:54.661Z,10.74
2023-03-30T08:23:57.858Z,10.78
2023-03-30T08:28:55.355Z,11.06
2023-03-30T08:33:52.296Z,11.33
2023-03-30T08:38:48.881Z,11.49
2023-03-30T08:44:02.268Z,11.25
2023-03-30T08:49:01.208Z,11.08
2023-03-30T08:54:08.805Z,11.07
2023-03-30T08:59:27.163Z,10.99
2023-03-30T09:04:57.245Z,11.26
2023-03-30T09:09:55.358Z,11.75
2023-03-30T09:14:58.401Z,11.82
2023-03-30T09:20:06.875Z,11.76
2023-03-30T09:25:12.147Z,12.19
2023-03-30T09:30:21.277Z,12.35
2023-03-30T09:35:28.620Z,12.41
2023-03-30T09:40:44.090Z,12.23
2023-03-30T09:45:42.836Z,12.30
2023-03-30T09:50:42.846Z,12.30
2023-03-30T09:55:39.428Z,12.39
2023-03-30T10:00:36.597Z,12.47
2023-03-30T10:05:36.569Z,13.01
2023-03-30T10:10:38.266Z,13.37
2023-03-30T10:15:39.083Z,13.85
2023-03-30T10:20:36.625Z,13.81
2023-03-30T10:25:33.898Z,13.92
2023-03-30T10:30:32.241Z,13.49
2023-03-30T10:35:36.970Z,13.32
2023-03-30T10:40:39.263Z,13.17
2023-03-30T10:45:50.128Z,13.38
2023-03-30T10:51:05.172Z,13.41
2023-03-30T10:56:26.319Z,13.47
2023-03-30T11:01:50.706Z,13.38
2023-03-30T11:06:49.667Z,13.41
2023-03-30T11:12:02.581Z,13.49
2023-03-30T11:17:01.568Z,13.90
2023-03-30T11:22:00.840Z,14.28
2023-03-30T11:27:18.476Z,14.65
2023-03-30T11:32:27.121Z,14.91
2023-03-30T11:37:33.787Z,15.28
2023-03-30T11:42:32.043Z,15.74
2023-03-30T11:47:53.519Z,16.34
2023-03-30T11:53:22.305Z,15.74
2023-03-30T11:58:48.007Z,15.67
2023-03-30T12:03:50.633Z,15.89
2023-03-30T12:09:03.049Z,15.02
2023-03-30T12:14:00.722Z,14.38
2023-03-30T12:19:22.145Z,13.91
2023-03-30T12:24:29.175Z,12.92
2023-03-30T12:34:51.311Z,11.27
2023-03-30T12:40:19.059Z,11.31
2023-03-30T12:45:15.476Z,12.16
2023-03-30T12:50:31.034Z,12.30
2023-03-30T12:55:27.380Z,13.21
2023-03-30T13:00:32.658Z,13.57
2023-03-30T13:05:36.604Z,12.93
2023-03-30T13:10:36.842Z,13.11
2023-03-30T13:15:35.433Z,13.75
2023-03-30T13:20:56.509Z,14.19
2023-03-30T13:26:04.611Z,13.89
2023-03-30T13:31:42.750Z,13.86
2023-03-30T13:37:06.752Z,13.53
2023-03-30T13:42:11.805Z,15.87
2023-03-30T13:47:27.236Z,16.33
2023-03-30T13:52:31.972Z,14.65
2023-03-30T13:57:35.425Z,14.32
2023-03-30T14:02:31.944Z,13.87
2023-03-30T14:07:30.219Z,14.07
2023-03-30T14:12:27.037Z,13.90
2023-03-30T14:17:24.864Z,13.88
2023-03-30T14:22:27.133Z,13.66
2023-03-30T14:27:23.564Z,13.68
2023-03-30T14:32:23.164Z,13.68
2023-03-30T14:37:22.438Z,13.93
2023-03-30T14:42:24.078Z,14.43
2023-03-30T14:47:23.710Z,16.06
2023-03-30T14:52:22.608Z,17.42
2023-03-30T14:57:21.256Z,16.54
2023-03-30T15:02:23.828Z,16.93
2023-03-30T15:07:22.873Z,15.32
2023-03-30T15:12:25.099Z,14.73
2023-03-30T15:17:24.789Z,14.01
2023-03-30T15:22:28.183Z,14.22
2023-03-30T15:27:24.702Z,14.79
2023-03-30T15:32:29.295Z,14.58
2023-03-30T15:37:25.886Z,14.06
2023-03-30T15:42:41.605Z,12.60
2023-03-30T15:47:39.609Z,12.60
2023-03-30T15:52:37.832Z,12.63
2023-03-30T15:57:35.981Z,12.38
2023-03-30T16:02:32.437Z,12.42
2023-03-30T16:07:31.707Z,13.09
2023-03-30T16:12:30.208Z,12.79
2023-03-30T16:17:26.698Z,12.26
2023-03-30T16:22:23.113Z,13.75
2023-03-30T16:27:19.560Z,13.09
2023-03-30T16:32:16.216Z,12.58
2023-03-30T16:37:12.672Z,12.54
2023-03-30T16:42:09.095Z,12.36
2023-03-30T16:47:05.484Z,12.25
2023-03-30T16:52:03.208Z,12.22
2023-03-30T16:57:01.384Z,12.21
2023-03-30T17:01:59.436Z,12.24
2023-03-30T17:06:56.095Z,12.17
2023-03-30T17:11:52.588Z,12.21
2023-03-30T17:16:49.045Z,12.06
2023-03-30T17:21:46.001Z,11.44
2023-03-30T17:26:42.871Z,11.20
2023-03-30T17:31:39.436Z,11.04
2023-03-30T17:36:35.904Z,11.13
2023-03-30T17:41:34.164Z,11.16
2023-03-30T17:46:32.362Z,11.23
2023-03-30T17:51:29.085Z,11.25
2023-03-30T17:56:26.097Z,11.22
2023-03-30T18:01:24.912Z,11.19
2023-03-30T18:06:21.698Z,11.27
2023-03-30T18:11:18.913Z,11.30
2023-03-30T18:16:19.602Z,11.44
2023-03-30T18:21:17.150Z,11.46
2023-03-30T18:26:14.154Z,11.50
2023-03-30T18:31:11.373Z,11.31
2023-03-30T18:36:12.916Z,11.02
2023-03-30T18:41:13.525Z,10.80
2023-03-30T18:46:13.040Z,10.63
2023-03-30T18:51:12.132Z,10.61
2023-03-30T18:56:12.185Z,10.64
2023-03-30T19:01:10.854Z,10.77
2023-03-30T19:06:19.746Z,10.82
2023-03-30T19:11:20.365Z,10.81
2023-03-30T19:16:18.755Z,10.73
2023-03-30T19:21:17.591Z,10.82
2023-03-30T19:26:14.343Z,10.84
2023-03-30T19:31:15.738Z,10.81
2023-03-30T19:36:13.318Z,10.75
2023-03-30T19:41:11.518Z,10.82
2023-03-30T19:46:08.794Z,10.85
2023-03-30T19:51:05.740Z,10.80
2023-03-30T19:56:02.445Z,10.67
2023-03-30T20:01:04.188Z,10.27
2023-03-30T20:06:01.576Z,10.12
2023-03-30T20:10:59.394Z,10.09
2023-03-30T20:16:22.826Z,10.11
2023-03-30T20:21:22.555Z,10.11
2023-03-30T20:26:19.507Z,10.02
2023-03-30T20:31:16.742Z,10.00
2023-03-30T20:36:13.190Z,10.00
2023-03-30T20:41:12.542Z,10.02
2023-03-30T20:46:09.597Z,10.00
2023-03-30T20:51:16.321Z,9.97
2023-03-30T20:56:12.966Z,9.89
2023-03-30T21:01:25.143Z,9.79
2023-03-30T21:06:23.751Z,9.78
2023-03-30T21:11:21.008Z,9.67
2023-03-30T21:16:18.060Z,9.66
2023-03-30T21:21:14.594Z,9.58
2023-03-30T21:26:12.400Z,9.59
2023-03-30T21:31:11.644Z,9.58
2023-03-30T21:36:08.832Z,9.55
2023-03-30T21:41:12.690Z,9.57
2023-03-30T21:46:12.660Z,9.58
2023-03-30T21:51:13.651Z,9.58
2023-03-30T21:56:13.923Z,9.55
2023-03-30T22:01:12.688Z,9.54
2023-03-30T22:06:11.254Z,9.50
2023-03-30T22:11:12.328Z,9.45
2023-03-30T22:16:32.130Z,9.41
2023-03-30T22:21:33.750Z,9.44
2023-03-30T22:26:30.326Z,9.50
2023-03-30T22:31:27.485Z,9.50
2023-03-30T22:36:29.672Z,9.56
2023-03-30T22:41:27.164Z,9.58
2023-03-30T22:46:25.859Z,9.59
2023-03-30T22:51:26.561Z,9.61
2023-03-30T22:56:23.410Z,9.59
2023-03-30T23:01:21.400Z,9.60
2023-03-30T23:06:18.868Z,9.63
2023-03-30T23:11:15.935Z,9.60
2023-03-30T23:16:12.353Z,9.61
2023-03-30T23:21:10.850Z,9.57
2023-03-30T23:26:10.067Z,9.56
2023-03-30T23:31:20.866Z,9.56
2023-03-30T23:36:17.751Z,9.53
2023-03-30T23:41:16.387Z,9.55
2023-03-30T23:46:13.510Z,9.53
2023-03-30T23:51:10.150Z,9.53
2023-03-30T23:56:13.557Z,9.55
